• Join FlightAware (Why Join?)
  • Login
  • US Flag 
06:10PM EDT


 

Airport Tracker/Info


-or-


 

Live Flight TrackerFlight Track Log ✈ UAL4528 ✈ 11-Apr-2013 ✈ KIAH - KLBB

Flight Track Log - Related Links

Times and Time Zones

All times are in EDT time to prevent confusion due to time zone crossing. See the UAL4528 flight status page for this flight to view local times or setup timezone preferences in your user account.

Time Position Orientation Groundspeed Altitude Reporting Facility
EDT Latitude Longitude Course Direction KTS MPH feet Rate Location/Type
08:09PM 30.0542 -96.0126 291° West  Level FlightAware Approximate
08:10PM 30.0755 -96.1467 276° West  Level FlightAware Approximate
08:11PM 30.1000 -96.2748 270° West  Level FlightAware Approximate
08:12PM 30.1159 -96.4106 279° West  Level FlightAware Approximate
08:13PM 30.1353 -96.5462 280° West  Level FlightAware Approximate
08:14PM 30.1562 -96.6814 280° West  Level FlightAware Approximate
08:15PM 30.1799 -96.8160 283° West  Level FlightAware Approximate
08:16PM 30.2000 -96.9509 270° West  Level FlightAware Approximate
08:17PM 30.2194 -97.0845 280° West  Level FlightAware Approximate
08:18PM 30.2403 -97.2199 280° West  Level FlightAware Approximate
08:19PM 30.2620 -97.3551 281° West  Level FlightAware Approximate
08:20PM 30.2765 -97.4916 276° West  Level FlightAware Approximate
08:21PM 30.2935 -97.6276 281° West  Level FlightAware Approximate
08:22PM 30.3139 -97.7632 279° West  Level FlightAware Approximate
08:23PM 30.3333 -97.8990 279° West  Level FlightAware Approximate
08:24PM 30.3529 -98.0348 280° West  Level FlightAware Approximate
08:25PM 30.3744 -98.1703 280° West  Level FlightAware Approximate
08:26PM 30.3957 -98.3058 280° West  Level FlightAware Approximate
08:27PM 30.4146 -98.4418 279° West  Level FlightAware Approximate
08:28PM 30.4328 -98.5780 279° West  Level FlightAware Approximate
08:29PM 30.4509 -98.7142 279° West  Level FlightAware Approximate
08:30PM 30.4688 -98.8504 279° West  Level FlightAware Approximate
08:31PM 30.4866 -98.9868 279° West  Level FlightAware Approximate
08:32PM 30.5043 -99.1231 279° West  Level FlightAware Approximate
08:33PM 30.5218 -99.2596 279° West  Level FlightAware Approximate
08:34PM 30.5383 -99.3962 277° West  Level FlightAware Approximate
08:35PM 30.5532 -99.5331 277° West  Level FlightAware Approximate
08:36PM 30.5678 -99.6700 277° West  Level FlightAware Approximate
08:37PM 30.5823 -99.8070 277° West  Level FlightAware Approximate
08:38PM 30.6753 -99.8877 326° Northwest  Level FlightAware Approximate
08:39PM 30.7742 -99.9643 326° Northwest  Level FlightAware Approximate
08:40PM 30.8730 -100.0411 326° Northwest  Level FlightAware Approximate
08:41PM 30.9718 -100.1180 326° Northwest  Level FlightAware Approximate
08:42PM 31.0706 -100.1951 326° Northwest  Level FlightAware Approximate
08:43PM 31.1693 -100.2724 326° Northwest  Level FlightAware Approximate
08:44PM 31.2639 -100.3565 322° Northwest  Level FlightAware Approximate
08:45PM 31.3577 -100.4418 322° Northwest  Level FlightAware Approximate
08:46PM 31.4621 -100.5079 333° Northwest  Level FlightAware Approximate
08:47PM 31.5675 -100.5722 333° Northwest  Level FlightAware Approximate
08:48PM 31.6730 -100.6365 333° Northwest  Level FlightAware Approximate
08:49PM 31.7784 -100.7010 333° Northwest  Level FlightAware Approximate
08:50PM 31.8837 -100.7657 332° Northwest  Level FlightAware Approximate
08:51PM 31.9895 -100.8294 335° Northwest  Level FlightAware Approximate
08:52PM 32.0970 -100.8891 335° Northwest  Level FlightAware Approximate
08:53PM 32.1993 -100.9602 332° Northwest  Level FlightAware Approximate
08:54PM 32.3040 -101.0267 332° Northwest  Level FlightAware Approximate
08:55PM 32.4082 -101.0943 331° Northwest  Level FlightAware Approximate
08:56PM 32.5117 -101.1634 331° Northwest  Level FlightAware Approximate
08:57PM 32.6186 -101.2249 334° Northwest  Level FlightAware Approximate
08:58PM 32.7257 -101.2861 334° Northwest  Level FlightAware Approximate
08:59PM 32.8313 -101.3508 332° Northwest  Level FlightAware Approximate
09:00PM 32.9363 -101.4170 332° Northwest  Level FlightAware Approximate
09:01PM 33.0411 -101.4837 332° Northwest  Level FlightAware Approximate
09:02PM 33.1438 -101.5551 329° Northwest  Level FlightAware Approximate
09:03PM 33.2493 -101.6200 335° Northwest  Level FlightAware Approximate
09:04PM 33.3557 -101.6829 329° Northwest  Level FlightAware Approximate
09:05PM 33.4573 -101.7568 329° Northwest  Level FlightAware Approximate
09:06PM 33.5615 -101.8249 335° Northwest  Level FlightAware Approximate
09:07PM 33.6637 -101.8206 337° Northwest  Level Estimated
09:08PM 33.6637 -101.8206 121° Southeast  Level Estimated
09:09PM 33.6637 -101.8206 121° Southeast  Level Estimated
09:10PM 33.6637 -101.8206 121° Southeast  Level Estimated
09:11PM 33.6637 -101.8206 121° Southeast  Level Estimated
09:12PM 33.6637 -101.8206 121° Southeast  Level Estimated
09:13PM 33.6637 -101.8206 121° Southeast  Level Estimated
09:14PM 33.6637 -101.8206 121° Southeast  Level Estimated